Terminal Aerodrome Forecast
Issued by NWS Spokane, WA

Home | Current Version | Previous Version | Text Only | Print | Product List | Glossary On
Versions: 1 2 3 4 5 6 7 8 9 10 11 12
000
FTUS46 KOTX 231120
TAFLWS
TAF
KLWS 231120Z 2312/2412 VRB02KT P6SM FEW120
     FM231400 04005KT P6SM FEW120 BKN150
     FM240000 34006KT P6SM FEW100 BKN200
     FM240300 28012KT P6SM FEW100 OVC150
     FM240600 VRB05KT P6SM VCSH SCT070 OVC100=

USA.gov is the U.S. government's official web portal to all federal, state and local government web resources and services.